Time;durP1;ratioP1;P1;durP2;ratioP2;P2;SDS_P1;SDS_P2;PMS_P1;PMS_P2;Temp;Humidity;BMP_temperature;BMP_pressure;BME280_temperature;BME280_humidity;BME280_pressure;Samples;Min_cycle;Max_cycle;Signal;HPM_P1;HPM_P2
2024/01/08 06:39:26;;;;;;;20.52;6.82;;;;;;;-2.01;90.57;102892.38;5588160;24;21114;-68
2024/01/08 06:41:51;;;;;;;20.70;6.63;;;;;;;-2.04;90.65;102879.19;4868203;29;20021;-67
2024/01/08 06:44:17;;;;;;;19.70;6.15;;;;;;;-2.05;91.21;102883.56;4874703;29;20025;-68
2024/01/08 06:46:42;;;;;;;21.55;7.25;;;;;;;-2.04;91.68;102885.31;4878672;29;20080;-69
2024/01/08 06:49:08;;;;;;;21.05;6.72;;;;;;;-2.03;91.57;102883.59;4879677;29;20054;-69
2024/01/08 06:51:40;;;;;;;18.70;6.93;;;;;;;-2.05;91.67;102882.66;4867712;29;20017;-69
2024/01/08 06:54:07;;;;;;;18.52;6.53;;;;;;;-2.06;91.88;102887.06;4865507;29;20052;-69
2024/01/08 06:56:32;;;;;;;18.38;7.10;;;;;;;-2.09;92.35;102884.41;4881873;29;20040;-69
2024/01/08 06:59:01;;;;;;;18.27;6.50;;;;;;;-2.09;92.60;102880.84;4868305;29;20045;-69
2024/01/08 07:01:26;;;;;;;19.48;6.82;;;;;;;-2.06;92.37;102883.56;4883251;29;20017;-69
2024/01/08 07:03:52;;;;;;;21.38;7.93;;;;;;;-2.04;92.09;102889.72;4887876;29;20025;-69
2024/01/08 07:06:17;;;;;;;20.88;7.30;;;;;;;-2.01;92.04;102889.75;4883813;29;20024;-69
2024/01/08 07:08:45;;;;;;;22.23;8.00;;;;;;;-1.99;92.26;102893.28;4868245;29;20040;-69
2024/01/08 07:11:22;;;;;;;21.25;6.57;;;;;;;-1.99;92.28;102890.63;4869093;29;20009;-69
2024/01/08 07:13:47;;;;;;;21.13;6.93;;;;;;;-1.96;92.52;102898.63;4875489;29;20094;-69
2024/01/08 07:16:12;;;;;;;19.83;7.93;;;;;;;-1.97;91.84;102897.72;4877534;29;20021;-69
2024/01/08 07:18:38;;;;;;;19.83;7.57;;;;;;;-1.97;92.48;102896.84;4882699;29;20036;-69
2024/01/08 07:21:03;;;;;;;22.17;8.63;;;;;;;-1.98;92.22;102901.22;4883501;29;20040;-69
2024/01/08 07:23:28;;;;;;;20.98;7.75;;;;;;;-1.98;92.67;102898.59;4876166;29;20040;-69
2024/01/08 07:25:54;;;;;;;25.95;10.10;;;;;;;-1.96;92.68;102902.13;4881037;29;20085;-69
2024/01/08 07:28:20;;;;;;;20.27;7.30;;;;;;;-1.94;92.31;102907.41;4866049;29;20037;-69
2024/01/08 07:30:45;;;;;;;19.90;7.43;;;;;;;-1.91;92.62;102906.56;4887788;29;20088;-70
2024/01/08 07:33:11;;;;;;;20.63;6.72;;;;;;;-1.89;92.74;102905.69;4878675;29;20088;-69
2024/01/08 07:35:36;;;;;;;20.98;8.02;;;;;;;-1.88;92.58;102906.59;4876207;29;20018;-70
2024/01/08 07:38:01;;;;;;;25.73;7.65;;;;;;;-1.87;92.61;102914.53;4881125;29;20097;-69
2024/01/08 07:40:27;;;;;;;22.98;8.43;;;;;;;-1.86;92.70;102911.03;4865011;29;20101;-69
2024/01/08 07:42:54;;;;;;;20.48;6.93;;;;;;;-1.85;92.96;102918.03;4870156;29;20037;-69
2024/01/08 07:45:20;;;;;;;20.35;7.72;;;;;;;-1.82;93.10;102922.47;4879870;29;20112;-69
2024/01/08 07:47:45;;;;;;;23.23;8.77;;;;;;;-1.82;92.83;102923.34;4877893;29;20025;-69
2024/01/08 07:50:11;;;;;;;19.77;6.97;;;;;;;-1.79;93.05;102930.41;4882146;29;20049;-69
2024/01/08 07:52:36;;;;;;;22.33;7.45;;;;;;;-1.73;93.34;102938.38;4887431;29;20145;-69
2024/01/08 07:55:03;;;;;;;19.23;6.85;;;;;;;-1.72;93.02;102929.63;4863807;29;20150;-70
2024/01/08 07:57:28;;;;;;;22.80;8.18;;;;;;;-1.72;92.39;102923.47;4836810;29;20017;-70
2024/01/08 07:59:54;;;;;;;21.88;7.53;;;;;;;-1.70;92.48;102924.38;4840853;29;20504;-70
2024/01/08 08:02:19;;;;;;;20.67;7.40;;;;;;;-1.70;92.46;102917.34;4840310;29;20082;-70
2024/01/08 08:04:44;;;;;;;18.98;7.03;;;;;;;-1.69;92.08;102928.78;4852247;29;20034;-70
2024/01/08 08:07:10;;;;;;;21.20;7.15;;;;;;;-1.70;91.81;102921.72;4853323;29;20041;-70
2024/01/08 08:09:35;;;;;;;16.90;6.55;;;;;;;-1.68;91.30;102922.66;4850895;29;20526;-70
2024/01/08 08:12:00;;;;;;;20.13;6.53;;;;;;;-1.69;91.07;102929.66;4855112;29;20030;-70
2024/01/08 08:14:26;;;;;;;19.20;6.70;;;;;;;-1.69;90.82;102927.03;4857172;29;20117;-70
2024/01/08 08:16:52;;;;;;;21.70;8.45;;;;;;;-1.67;91.55;102930.56;4849286;29;20039;-70
2024/01/08 08:19:18;;;;;;;20.60;7.32;;;;;;;-1.64;90.95;102929.69;4856925;29;20084;-70
2024/01/08 08:21:43;;;;;;;21.88;7.22;;;;;;;-1.62;91.73;102927.97;4848388;29;20029;-70
2024/01/08 08:24:08;;;;;;;19.45;7.15;;;;;;;-1.64;90.71;102937.59;4839824;29;20077;-70
2024/01/08 08:26:34;;;;;;;20.08;6.70;;;;;;;-1.63;90.90;102929.72;4853470;29;20029;-70
2024/01/08 08:29:00;;;;;;;19.98;7.05;;;;;;;-1.56;90.99;102943.00;4838703;29;20033;-70
2024/01/08 08:31:25;;;;;;;20.95;7.30;;;;;;;-1.52;89.88;102935.13;4856539;29;20124;-70
2024/01/08 08:33:51;;;;;;;20.80;6.90;;;;;;;-1.51;89.40;102938.63;4867408;29;20334;-70
2024/01/08 08:36:16;;;;;;;18.50;6.25;;;;;;;-1.52;89.22;102937.75;4843249;29;20033;-70
2024/01/08 08:38:41;;;;;;;18.67;6.00;;;;;;;-1.51;89.37;102928.09;4852678;29;20085;-70
2024/01/08 08:41:07;;;;;;;19.50;6.75;;;;;;;-1.51;89.44;102934.22;4842458;29;20037;-70
2024/01/08 08:43:32;;;;;;;19.85;6.50;;;;;;;-1.50;88.75;102936.00;4862883;29;20108;-70
2024/01/08 08:45:59;;;;;;;17.13;5.95;;;;;;;-1.49;89.11;102929.88;4864187;29;20021;-70
2024/01/08 08:48:24;;;;;;;17.92;6.63;;;;;;;-1.51;88.43;102938.63;4859077;29;20033;-70
2024/01/08 08:50:49;;;;;;;19.83;6.97;;;;;;;-1.50;88.20;102949.19;4841999;29;20045;-70
2024/01/08 08:53:14;;;;;;;18.70;6.72;;;;;;;-1.47;88.88;102943.09;4860625;29;20121;-70
2024/01/08 08:55:40;;;;;;;18.48;6.18;;;;;;;-1.45;89.22;102943.97;4859884;29;20021;-70
2024/01/08 08:58:09;;;;;;;17.60;6.22;;;;;;;-1.44;88.85;102936.06;4843501;29;20037;-70
2024/01/08 09:00:36;;;;;;;19.10;6.20;;;;;;;-1.49;88.58;102943.06;4852623;29;20125;-70
2024/01/08 09:03:03;;;;;;;16.13;5.40;;;;;;;-1.50;88.41;102940.41;4859593;29;20289;-69
2024/01/08 09:05:28;;;;;;;17.45;6.05;;;;;;;-1.55;88.13;102953.56;4861602;29;20496;-70
2024/01/08 09:07:53;;;;;;;20.23;6.68;;;;;;;-1.55;88.76;102958.84;4859466;29;20038;-70
2024/01/08 09:10:19;;;;;;;18.73;6.05;;;;;;;-1.60;89.51;102944.69;4862418;29;20029;-70
2024/01/08 09:12:44;;;;;;;18.20;6.28;;;;;;;-1.56;90.96;102954.41;4842356;29;20528;-70
2024/01/08 09:15:09;;;;;;;18.77;6.63;;;;;;;-1.56;90.99;102957.06;4860639;29;20026;-70
2024/01/08 09:17:35;;;;;;;18.92;5.60;;;;;;;-1.56;90.44;102962.31;4861965;29;20029;-70
2024/01/08 09:20:01;;;;;;;19.20;6.25;;;;;;;-1.54;90.01;102964.97;4845027;29;20121;-70
2024/01/08 09:22:26;;;;;;;18.67;6.25;;;;;;;-1.55;90.15;102956.19;4838119;29;20034;-70
2024/01/08 09:24:51;;;;;;;18.38;6.47;;;;;;;-1.56;89.60;102957.06;4858338;29;20035;-70
2024/01/08 09:27:17;;;;;;;19.65;6.22;;;;;;;-1.56;90.21;102957.06;4861998;29;20512;-70
2024/01/08 09:29:42;;;;;;;18.33;5.85;;;;;;;-1.53;90.62;102958.84;4859390;29;20037;-70
2024/01/08 09:32:07;;;;;;;18.33;5.93;;;;;;;-1.49;90.19;102963.28;4861796;29;20412;-70
2024/01/08 09:34:32;;;;;;;16.65;5.70;;;;;;;-1.53;89.64;102967.63;4852367;29;20033;-70
2024/01/08 09:36:58;;;;;;;18.55;6.35;;;;;;;-1.56;90.24;102967.59;4837545;29;20022;-70
2024/01/08 09:39:23;;;;;;;18.58;6.15;;;;;;;-1.57;90.88;102979.00;4833537;29;20046;-70
2024/01/08 09:41:51;;;;;;;20.08;7.93;;;;;;;-1.55;91.13;102974.66;4838841;29;20454;-70
2024/01/08 09:44:18;;;;;;;24.20;7.75;;;;;;;-1.49;91.36;102973.84;4839102;29;20030;-70
2024/01/08 09:46:47;;;;;;;18.65;7.22;;;;;;;-1.47;92.15;102983.50;4839535;29;20449;-70
2024/01/08 09:49:14;;;;;;;18.27;6.70;;;;;;;-1.48;94.23;102976.50;4838859;29;20045;-70
2024/01/08 09:51:41;;;;;;;18.52;6.60;;;;;;;-1.56;98.94;102983.41;4842118;29;20030;-70
2024/01/08 09:54:08;;;;;;;19.05;6.93;;;;;;;-1.64;100.00;102980.69;4842592;29;20033;-70
2024/01/08 09:56:33;;;;;;;20.27;7.22;;;;;;;-1.66;100.00;102989.44;4846299;29;20039;-70
2024/01/08 09:58:59;;;;;;;19.23;6.78;;;;;;;-1.69;100.00;102979.75;4842551;29;20033;-70
2024/01/08 10:01:24;;;;;;;18.13;6.50;;;;;;;-1.65;100.00;102983.31;4844481;29;20044;-70
2024/01/08 10:03:50;;;;;;;18.90;6.10;;;;;;;-1.63;100.00;102993.00;4841971;29;20520;-70
2024/01/08 10:06:15;;;;;;;22.05;7.32;;;;;;;-1.66;100.00;102992.97;4848676;29;20020;-70
2024/01/08 10:08:40;;;;;;;19.92;7.35;;;;;;;-1.61;100.00;102985.09;4835824;29;20072;-70
2024/01/08 10:11:07;;;;;;;18.95;6.43;;;;;;;-1.61;100.00;102986.00;4844609;29;20147;-70
2024/01/08 10:13:32;;;;;;;19.20;7.40;;;;;;;-1.61;98.93;102990.38;4844844;29;20030;-69
2024/01/08 10:15:58;;;;;;;22.15;7.32;;;;;;;-1.58;98.66;102980.75;4856611;29;20025;-69
2024/01/08 10:18:24;;;;;;;17.73;6.63;;;;;;;-1.58;97.68;102983.41;4855363;29;20093;-69
2024/01/08 10:21:07;;;;;;;18.55;6.78;;;;;;;-1.51;98.38;102973.78;4854043;29;20042;-69
2024/01/08 10:23:33;;;;;;;19.13;6.47;;;;;;;-1.48;96.93;102976.50;4854390;29;20034;-69
2024/01/08 10:26:00;;;;;;;21.63;7.72;;;;;;;-1.39;97.33;102964.25;4856589;29;20093;-69
2024/01/08 10:28:26;;;;;;;18.73;6.22;;;;;;;-1.35;94.69;102969.56;4854406;29;20072;-69
2024/01/08 10:30:52;;;;;;;18.58;6.85;;;;;;;-1.33;94.10;102959.03;4851586;29;20157;-69
2024/01/08 10:33:18;;;;;;;19.52;6.75;;;;;;;-1.32;92.16;102966.09;4855181;29;20094;-69
2024/01/08 10:35:44;;;;;;;19.65;6.38;;;;;;;-1.29;92.88;102963.47;4862088;29;20068;-69
2024/01/08 10:38:10;;;;;;;19.25;6.20;;;;;;;-1.22;93.92;102965.31;4847689;29;20034;-69
2024/01/08 10:40:37;;;;;;;19.25;6.63;;;;;;;-1.17;93.49;102960.97;4878774;24;20056;-69
2024/01/08 10:43:03;;;;;;;19.30;6.53;;;;;;;-1.20;90.93;102955.69;4876077;29;20025;-69
2024/01/08 10:45:28;;;;;;;18.17;7.43;;;;;;;-1.21;90.69;102956.53;4881115;29;20028;-69
2024/01/08 10:48:10;;;;;;;17.75;6.82;;;;;;;-1.24;90.98;102951.25;4875622;29;20305;-69
2024/01/08 10:50:38;;;;;;;21.48;7.05;;;;;;;-1.27;90.38;102948.56;4872722;29;20040;-69
2024/01/08 10:53:08;;;;;;;19.45;6.68;;;;;;;-1.30;89.38;102945.91;4878278;29;20037;-69
2024/01/08 10:55:33;;;;;;;;;;;;;;;-1.30;89.23;102946.78;4881847;29;20044;-69
2024/01/08 10:58:07;;;;;;;20.02;7.03;;;;;;;-1.32;89.66;102945.00;4873599;29;19987;-69
2024/01/08 11:00:34;;;;;;;18.40;6.45;;;;;;;-1.29;87.37;102948.56;4876027;29;20044;-69
2024/01/08 11:03:00;;;;;;;17.60;6.75;;;;;;;-1.24;86.55;102940.69;4872248;29;20074;-69
2024/01/08 11:05:31;;;;;;;20.05;6.07;;;;;;;-1.19;85.31;102941.59;4874657;29;20064;-70
2024/01/08 11:07:58;;;;;;;16.83;5.97;;;;;;;-1.12;85.86;102947.81;4874206;29;20096;-69
2024/01/08 11:10:23;;;;;;;17.23;6.32;;;;;;;-1.08;84.95;102944.34;4867950;29;20057;-69
2024/01/08 11:12:56;;;;;;;16.48;5.97;;;;;;;-1.08;82.64;102939.06;4876109;29;20054;-69
2024/01/08 11:15:28;;;;;;;17.90;5.88;;;;;;;-1.05;83.23;102936.47;4872098;29;20029;-69
2024/01/08 11:17:57;;;;;;;18.17;6.18;;;;;;;-1.07;82.94;102931.16;4873218;29;20033;-69
2024/01/08 11:20:45;;;;;;;16.97;5.57;;;;;;;-0.98;82.82;102940.91;4850782;29;20061;-69
2024/01/08 11:23:41;;;;;;;18.27;6.03;;;;;;;-0.97;82.03;102933.88;4869340;29;20115;-69
2024/01/08 11:26:20;;;;;;;16.42;5.25;;;;;;;-0.94;79.87;102937.44;4868912;29;20097;-69
2024/01/08 11:29:08;;;;;;;16.45;5.25;;;;;;;-0.91;79.08;102936.56;4869230;29;20537;-69
2024/01/08 11:32:17;;;;;;;16.38;5.75;;;;;;;-0.92;78.39;102924.25;4872815;29;20409;-69
2024/01/08 11:35:07;;;;;;;16.33;5.50;;;;;;;-0.89;76.92;102924.28;4869332;29;20489;-69
2024/01/08 11:37:38;;;;;;;19.60;5.65;;;;;;;-0.83;77.55;102916.41;4859283;29;20286;-69
2024/01/08 11:40:13;;;;;;;17.45;6.05;;;;;;;-0.76;77.46;102912.94;4920620;24;20050;-67
2024/01/08 11:42:40;;;;;;;18.33;5.63;;;;;;;-0.78;75.77;102922.59;4886542;29;20060;-67
2024/01/08 11:45:05;;;;;;;17.38;5.65;;;;;;;-0.81;75.12;102932.25;4885585;29;20088;-66
2024/01/08 11:47:32;;;;;;;16.63;5.32;;;;;;;-0.80;75.87;102923.47;4882732;29;20145;-66
2024/01/08 11:49:58;;;;;;;17.05;5.57;;;;;;;-0.84;72.63;102914.63;4883670;29;20033;-66
2024/01/08 11:52:26;;;;;;;20.58;5.50;;;;;;;-0.81;73.17;102919.06;4884577;29;20294;-66
2024/01/08 11:54:53;;;;;;;13.63;4.35;;;;;;;-0.83;72.83;102916.41;4882923;29;20097;-67
2024/01/08 11:57:19;;;;;;;15.32;4.47;;;;;;;-0.82;73.87;102912.91;4882563;29;20387;-66
2024/01/08 11:59:46;;;;;;;14.52;5.53;;;;;;;-0.82;71.79;102915.53;4881100;29;20041;-70
2024/01/08 12:02:27;;;;;;;16.15;5.22;;;;;;;-0.81;74.14;102908.50;4887049;29;20165;-70
2024/01/08 12:05:00;;;;;;;17.63;5.88;;;;;;;-0.81;75.31;102904.09;4888909;29;20037;-69
2024/01/08 12:07:29;;;;;;;17.45;5.15;;;;;;;-0.77;75.67;102903.25;4892811;29;20108;-70
2024/01/08 12:10:02;;;;;;;17.75;6.03;;;;;;;-0.66;77.05;102894.50;4893005;29;20284;-69
2024/01/08 12:12:28;;;;;;;18.02;5.53;;;;;;;-0.57;75.53;102898.09;4891690;29;20044;-69
2024/01/08 12:14:54;;;;;;;16.52;5.78;;;;;;;-0.50;76.42;102893.72;4890603;29;20029;-70
2024/01/08 12:17:19;;;;;;;17.67;5.90;;;;;;;-0.47;74.27;102899.03;4891359;29;20047;-69
2024/01/08 12:19:53;;;;;;;15.63;5.35;;;;;;;-0.52;73.18;102892.84;4890772;29;20036;-69
2024/01/08 12:22:19;;;;;;;14.55;5.13;;;;;;;-0.55;72.63;102892.81;4889417;29;20036;-67
2024/01/08 12:24:56;;;;;;;24.48;6.38;;;;;;;-0.59;73.15;102891.91;4890654;29;20039;-67
2024/01/08 12:27:22;;;;;;;16.92;5.60;;;;;;;-0.60;73.29;102895.44;4886431;29;20062;-67
2024/01/08 12:29:50;;;;;;;18.55;5.93;;;;;;;-0.62;71.99;102896.28;4886069;29;20088;-67
2024/01/08 12:32:18;;;;;;;15.32;5.22;;;;;;;-0.75;70.27;102885.66;4892536;29;20025;-67
2024/01/08 12:34:43;;;;;;;14.20;4.53;;;;;;;-0.78;71.55;102892.66;4893785;29;20101;-67
2024/01/08 12:37:11;;;;;;;15.63;4.90;;;;;;;-0.78;72.49;102890.03;4896900;29;20041;-67
2024/01/08 12:39:38;;;;;;;15.93;5.00;;;;;;;-0.79;69.71;102894.44;4886000;29;20050;-67
2024/01/08 12:42:24;;;;;;;15.88;5.13;;;;;;;-0.75;70.25;102890.94;4881438;29;20097;-66
2024/01/08 12:44:50;;;;;;;15.52;5.15;;;;;;;-0.80;67.47;102882.09;4882231;29;20021;-67
2024/01/08 12:47:15;;;;;;;12.93;4.20;;;;;;;-0.84;66.56;102877.66;4890456;29;20037;-67
2024/01/08 12:49:41;;;;;;;15.25;4.40;;;;;;;-0.88;64.98;102881.16;4879663;29;20056;-67
2024/01/08 12:52:06;;;;;;;14.18;4.57;;;;;;;-0.96;64.91;102881.09;4883940;29;20033;-67
2024/01/08 12:54:37;;;;;;;13.07;4.35;;;;;;;-1.00;63.16;102876.66;4882768;29;20025;-67
2024/01/08 12:57:03;;;;;;;14.68;4.20;;;;;;;-1.03;61.98;102883.69;4882364;29;20045;-66
2024/01/08 12:59:30;;;;;;;14.90;3.92;;;;;;;-1.04;62.12;102877.50;4880767;29;20068;-67
2024/01/08 13:01:55;;;;;;;11.00;3.10;;;;;;;-1.01;62.51;102876.66;4882227;29;20132;-66
2024/01/08 13:04:22;;;;;;;10.68;3.47;;;;;;;-1.00;61.38;102875.78;4882370;29;20118;-67
2024/01/08 13:06:48;;;;;;;11.13;3.60;;;;;;;-1.01;62.37;102876.66;4880586;29;20028;-67
2024/01/08 13:09:15;;;;;;;15.45;4.18;;;;;;;-0.97;60.85;102874.03;4879553;29;20033;-67
2024/01/08 13:11:41;;;;;;;13.07;3.45;;;;;;;-0.94;60.48;102875.84;4876622;29;20036;-67
2024/01/08 13:14:10;;;;;;;11.60;3.40;;;;;;;-0.90;61.40;102880.25;4879840;29;20033;-68
2024/01/08 13:16:36;;;;;;;13.35;3.97;;;;;;;-0.90;57.43;102875.00;4871858;29;20037;-67
2024/01/08 13:19:01;;;;;;;10.75;3.40;;;;;;;-0.90;58.89;102867.94;4873459;29;20090;-67
2024/01/08 13:21:26;;;;;;;11.98;3.75;;;;;;;-0.89;58.00;102875.00;4873187;29;20038;-67
2024/01/08 13:23:52;;;;;;;11.93;3.78;;;;;;;-0.89;55.63;102882.91;4884867;29;20038;-68
2024/01/08 13:26:18;;;;;;;13.05;3.85;;;;;;;-0.89;56.06;102892.59;4876471;29;20031;-67
2024/01/08 13:28:45;;;;;;;12.65;4.03;;;;;;;-0.96;55.02;102867.91;4876125;29;20053;-67
2024/01/08 13:31:11;;;;;;;13.20;4.05;;;;;;;-0.97;54.02;102881.09;4875356;29;20089;-65
2024/01/08 13:33:36;;;;;;;10.32;2.60;;;;;;;-1.01;54.52;102880.19;4877848;29;20037;-66
2024/01/08 13:36:02;;;;;;;13.00;3.72;;;;;;;-1.04;53.71;102879.28;4878785;29;20208;-66
2024/01/08 13:38:28;;;;;;;11.23;3.38;;;;;;;-1.05;54.50;102881.03;4878622;29;20375;-66
2024/01/08 13:40:58;;;;;;;11.75;3.25;;;;;;;-1.01;56.96;102874.00;4878672;29;20101;-67
2024/01/08 13:43:28;;;;;;;8.95;3.30;;;;;;;-0.98;53.48;102871.41;4877830;29;20037;-67
2024/01/08 13:45:55;;;;;;;10.15;3.28;;;;;;;-0.99;54.25;102873.16;4877946;29;20125;-67
2024/01/08 13:48:21;;;;;;;10.50;3.40;;;;;;;-1.00;53.19;102876.66;4874892;29;20045;-67
2024/01/08 13:50:46;;;;;;;11.60;4.13;;;;;;;-1.04;52.28;102880.16;4876479;29;20109;-67
2024/01/08 13:53:12;;;;;;;9.38;3.28;;;;;;;-1.08;52.43;102879.25;4876375;29;20089;-66
2024/01/08 13:55:39;;;;;;;10.70;3.20;;;;;;;-1.09;52.41;102885.41;4877839;29;20038;-67
2024/01/08 13:58:05;;;;;;;11.68;3.55;;;;;;;-1.11;52.29;102892.44;4876711;29;20658;-66
2024/01/08 14:00:31;;;;;;;9.20;2.90;;;;;;;-1.15;51.27;102881.84;4876964;29;20029;-66
2024/01/08 14:02:58;;;;;;;12.10;3.42;;;;;;;-1.12;52.53;102892.41;4875895;29;20024;-63
2024/01/08 14:05:24;;;;;;;9.60;3.28;;;;;;;-1.12;52.61;102889.78;4875988;29;20060;-67
2024/01/08 14:07:50;;;;;;;7.95;2.55;;;;;;;-1.11;53.89;102884.50;4876908;29;20030;-67
2024/01/08 14:10:16;;;;;;;11.50;3.40;;;;;;;-1.10;54.48;102896.84;4877868;29;20088;-66
2024/01/08 14:12:41;;;;;;;10.18;3.33;;;;;;;-1.15;51.76;102889.75;4877998;29;20025;-65
2024/01/08 14:15:07;;;;;;;10.75;3.15;;;;;;;-1.15;53.58;102895.91;4874367;29;20041;-66
2024/01/08 14:17:33;;;;;;;9.18;3.22;;;;;;;-1.15;52.05;102887.13;4873912;29;20018;-67
2024/01/08 14:19:59;;;;;;;10.13;3.22;;;;;;;-1.18;51.13;102887.09;4873370;29;20088;-67
2024/01/08 14:22:24;;;;;;;10.63;3.67;;;;;;;-1.24;51.89;102893.19;4876335;29;20045;-66
2024/01/08 14:24:49;;;;;;;8.52;2.58;;;;;;;-1.27;51.30;102887.91;4873610;29;20029;-68
2024/01/08 14:27:16;;;;;;;12.38;3.63;;;;;;;-1.29;52.47;102894.88;4875217;29;20121;-67
2024/01/08 14:29:46;;;;;;;7.85;2.75;;;;;;;-1.34;50.65;102889.56;4876886;29;20049;-67
2024/01/08 14:32:11;;;;;;;9.85;3.10;;;;;;;-1.36;50.98;102895.69;4875209;29;20116;-66
2024/01/08 14:34:37;;;;;;;8.50;2.75;;;;;;;-1.41;50.72;102896.56;4873929;29;20048;-67
2024/01/08 14:37:02;;;;;;;8.98;3.17;;;;;;;-1.39;50.88;102895.69;4874251;29;20037;-68
2024/01/08 14:39:28;;;;;;;11.55;2.85;;;;;;;-1.41;51.30;102904.47;4876551;29;20067;-66
2024/01/08 14:41:54;;;;;;;11.50;2.80;;;;;;;-1.44;51.46;102908.81;4875602;29;20025;-67
2024/01/08 14:44:19;;;;;;;8.57;2.70;;;;;;;-1.46;50.36;102906.19;4876325;29;20066;-67
2024/01/08 14:46:44;;;;;;;9.45;2.60;;;;;;;-1.45;51.13;102902.69;4874727;29;20029;-64
2024/01/08 14:49:10;;;;;;;7.07;2.78;;;;;;;-1.45;50.94;102905.31;4874319;29;20077;-66
2024/01/08 14:51:35;;;;;;;9.45;3.17;;;;;;;-1.48;51.42;102904.38;4880173;29;20048;-67
2024/01/08 14:54:01;;;;;;;10.23;3.33;;;;;;;-1.50;50.90;102914.91;4877964;29;20052;-66
2024/01/08 14:56:26;;;;;;;6.22;2.30;;;;;;;-1.51;51.75;102915.78;4876152;29;20036;-66
2024/01/08 14:58:53;;;;;;;8.52;3.00;;;;;;;-1.52;52.13;102916.66;4878288;29;20017;-67
2024/01/08 15:01:19;;;;;;;11.10;2.75;;;;;;;-1.52;51.66;102910.50;4887163;24;20064;-74
2024/01/08 15:03:45;;;;;;;6.82;2.40;;;;;;;-1.52;51.02;102918.41;4875866;29;20442;-73
2024/01/08 15:06:10;;;;;;;8.70;2.63;;;;;;;-1.55;50.84;102918.38;4871492;29;20036;-73
2024/01/08 15:08:36;;;;;;;11.43;3.40;;;;;;;-1.57;51.10;102913.09;4870811;29;20037;-73
2024/01/08 15:11:04;;;;;;;12.45;3.88;;;;;;;-1.52;50.85;102913.13;4875291;29;20561;-74
2024/01/08 15:13:30;;;;;;;10.38;3.10;;;;;;;-1.57;50.63;102921.00;4872859;29;20469;-73
2024/01/08 15:15:55;;;;;;;10.43;3.67;;;;;;;-1.61;50.59;102916.53;4871704;29;20080;-74
2024/01/08 15:18:21;;;;;;;12.85;3.40;;;;;;;-1.65;49.37;102927.97;4871804;29;20041;-74
2024/01/08 15:20:46;;;;;;;10.27;3.05;;;;;;;-1.70;49.25;102916.47;4872244;29;20041;-74
2024/01/08 15:23:13;;;;;;;11.18;3.45;;;;;;;-1.71;49.76;102933.13;4871905;29;20110;-74
2024/01/08 15:25:38;;;;;;;16.27;3.53;;;;;;;-1.72;50.07;102928.75;4872369;29;20039;-75
2024/01/08 15:28:04;;;;;;;10.88;3.33;;;;;;;-1.71;50.50;102927.84;4874001;29;20036;-74
2024/01/08 15:30:30;;;;;;;18.85;4.05;;;;;;;-1.73;51.17;102933.13;4874435;29;20036;-74
2024/01/08 15:32:55;;;;;;;11.10;2.97;;;;;;;-1.71;50.76;102926.13;4873284;29;20047;-74
2024/01/08 15:35:20;;;;;;;10.27;2.90;;;;;;;-1.76;50.78;102936.63;4872671;29;20063;-74
2024/01/08 15:37:46;;;;;;;12.48;3.90;;;;;;;-1.80;50.67;102932.19;4874084;29;20052;-73
2024/01/08 15:40:11;;;;;;;10.50;3.30;;;;;;;-1.82;53.37;102928.63;4872175;29;20455;-74
2024/01/08 15:42:37;;;;;;;10.90;3.05;;;;;;;-1.82;51.11;102936.53;4872287;29;20114;-74
2024/01/08 15:45:03;;;;;;;14.40;4.05;;;;;;;-1.84;52.30;102945.31;4869642;29;20040;-73
2024/01/08 15:47:28;;;;;;;12.38;3.75;;;;;;;-1.86;52.03;102947.03;4871796;29;20037;-74
2024/01/08 15:49:53;;;;;;;16.52;3.75;;;;;;;-1.90;52.81;102947.84;4873085;29;20428;-74
2024/01/08 15:52:19;;;;;;;10.70;3.40;;;;;;;-1.91;52.46;102940.81;4871728;29;20155;-74
2024/01/08 15:54:44;;;;;;;13.85;3.60;;;;;;;-1.93;52.83;102948.72;4873609;29;20056;-73
2024/01/08 15:57:09;;;;;;;13.05;3.95;;;;;;;-1.94;51.73;102944.31;4873519;29;20037;-73
2024/01/08 15:59:37;;;;;;;13.32;3.53;;;;;;;-1.98;52.06;102945.13;4867336;29;20112;-74
2024/01/08 16:02:04;;;;;;;12.57;3.47;;;;;;;-1.96;52.71;102956.59;4873788;29;20500;-74
2024/01/08 16:04:29;;;;;;;12.40;3.22;;;;;;;-1.96;53.34;102951.31;4874976;29;20051;-73
2024/01/08 16:06:54;;;;;;;14.55;3.35;;;;;;;-1.98;51.54;102947.75;4872261;29;20145;-75
2024/01/08 16:09:19;;;;;;;14.35;3.25;;;;;;;-2.01;51.10;102943.31;4873227;29;20041;-73
2024/01/08 16:11:45;;;;;;;8.02;2.83;;;;;;;-2.03;52.01;102949.47;4874638;29;20071;-78
2024/01/08 16:14:11;;;;;;;15.32;4.25;;;;;;;-2.07;51.76;102947.66;4869934;29;20096;-77
2024/01/08 16:16:36;;;;;;;10.48;3.03;;;;;;;-2.07;51.18;102952.91;4868569;29;20040;-77
2024/01/08 16:19:02;;;;;;;11.45;3.38;;;;;;;-2.09;51.01;102959.91;4868241;29;20494;-76
2024/01/08 16:21:27;;;;;;;12.52;3.05;;;;;;;-2.13;51.32;102959.84;4872533;29;20025;-76
2024/01/08 16:23:53;;;;;;;14.52;4.35;;;;;;;-2.13;52.06;102962.50;4868907;29;20033;-77
2024/01/08 16:26:18;;;;;;;11.80;3.67;;;;;;;-2.16;52.19;102962.44;4869902;29;20017;-77
2024/01/08 16:28:43;;;;;;;15.90;4.40;;;;;;;-2.17;52.14;102963.31;4869107;29;20100;-77
2024/01/08 16:31:09;;;;;;;12.18;3.38;;;;;;;-2.18;52.61;102971.19;4869903;29;20032;-76
2024/01/08 16:33:34;;;;;;;10.98;3.40;;;;;;;-2.17;53.67;102981.75;4869219;29;20036;-77
2024/01/08 16:35:59;;;;;;;12.82;3.85;;;;;;;-2.17;54.60;102971.22;4868431;29;20092;-77
2024/01/08 16:38:28;;;;;;;12.52;3.90;;;;;;;-2.20;53.90;102978.19;4869019;29;20125;-77
2024/01/08 16:40:55;;;;;;;12.05;4.00;;;;;;;-2.19;54.23;102980.84;4866304;29;20446;-76
2024/01/08 16:43:21;;;;;;;13.85;3.97;;;;;;;-2.21;53.77;102984.31;4866607;29;20037;-76
2024/01/08 16:45:46;;;;;;;12.85;3.33;;;;;;;-2.26;53.86;102989.53;4866141;29;20719;-77
2024/01/08 16:48:11;;;;;;;11.38;3.70;;;;;;;-2.28;53.96;102986.00;4867224;29;20136;-77
2024/01/08 16:50:37;;;;;;;11.95;3.75;;;;;;;-2.29;53.89;102978.94;4870524;29;20379;-78
2024/01/08 16:53:03;;;;;;;12.07;4.20;;;;;;;-2.29;53.84;102979.81;4870169;29;20044;-77
2024/01/08 16:55:28;;;;;;;13.27;3.72;;;;;;;-2.33;53.68;102992.94;4869670;29;20144;-76
2024/01/08 16:57:53;;;;;;;10.40;3.53;;;;;;;-2.30;54.21;103000.88;4872220;29;20093;-76
2024/01/08 17:00:20;;;;;;;14.02;4.05;;;;;;;-2.30;53.92;102992.97;4869250;29;20162;-77
2024/01/08 17:02:45;;;;;;;14.70;4.05;;;;;;;-2.32;54.44;102999.97;4870359;29;20052;-76
2024/01/08 17:05:11;;;;;;;15.38;4.30;;;;;;;-2.34;53.95;102996.44;4872381;29;20041;-80
2024/01/08 17:07:36;;;;;;;11.65;3.17;;;;;;;-2.37;53.92;102994.66;4869960;29;20037;-78
2024/01/08 17:10:02;;;;;;;16.17;4.32;;;;;;;-2.35;54.40;102994.66;4869264;29;20036;-79
2024/01/08 17:12:28;;;;;;;21.05;4.07;;;;;;;-2.39;54.39;102996.34;4866478;29;21868;-79
2024/01/08 17:14:53;;;;;;;13.10;3.58;;;;;;;-2.41;53.99;102999.84;4869003;29;20032;-81
2024/01/08 17:17:18;;;;;;;11.95;3.22;;;;;;;-2.39;54.51;103003.38;4872500;29;20466;-82
2024/01/08 17:19:44;;;;;;;14.98;4.15;;;;;;;-2.41;54.87;103002.47;4870235;29;20075;-77
2024/01/08 17:22:09;;;;;;;14.98;4.80;;;;;;;-2.40;55.02;103007.78;4870647;29;20374;-74
2024/01/08 17:24:34;;;;;;;13.18;4.10;;;;;;;-2.42;53.68;103004.22;4871786;29;20865;-73
2024/01/08 17:27:00;;;;;;;14.30;4.38;;;;;;;-2.43;53.99;103002.47;4875481;29;20074;-72
2024/01/08 17:29:25;;;;;;;11.50;3.33;;;;;;;-2.41;54.26;103010.38;4875884;29;20076;-74
2024/01/08 17:31:51;;;;;;;14.38;3.78;;;;;;;-2.42;54.09;103016.50;4871504;29;20339;-74
2024/01/08 17:34:17;;;;;;;14.13;3.38;;;;;;;-2.42;54.13;103013.88;4874800;29;20084;-74
2024/01/08 17:36:42;;;;;;;12.10;3.50;;;;;;;-2.44;54.85;103010.34;4874488;29;20667;-74
2024/01/08 17:39:07;;;;;;;15.40;4.13;;;;;;;-2.46;54.75;103023.44;4872565;29;20032;-74
2024/01/08 17:41:33;;;;;;;13.98;4.07;;;;;;;-2.46;54.09;103015.56;4871565;29;20037;-74
2024/01/08 17:43:58;;;;;;;12.73;3.58;;;;;;;-2.47;55.74;103027.84;4871458;29;20028;-74
2024/01/08 17:46:23;;;;;;;9.52;3.25;;;;;;;-2.49;54.89;103021.69;4873330;29;20064;-76
2024/01/08 17:48:49;;;;;;;14.18;3.90;;;;;;;-2.48;54.82;103027.81;4872037;29;20037;-77
2024/01/08 17:51:14;;;;;;;15.35;3.47;;;;;;;-2.49;55.00;103028.66;4873474;29;20587;-75
2024/01/08 17:53:39;;;;;;;15.95;3.35;;;;;;;-2.49;54.82;103029.56;4868848;29;20072;-77